Time;durP1;ratioP1;P1;durP2;ratioP2;P2;SDS_P1;SDS_P2;PMS_P1;PMS_P2;Temp;Humidity;BMP_temperature;BMP_pressure;BME280_temperature;BME280_humidity;BME280_pressure;Samples;Min_cycle;Max_cycle;Signal;HPM_P1;HPM_P2
2023/09/21 00:00:59;;;;;;;6.73;3.87;;;16.90;1.00;;;;;;4991425;28;20426;-72
2023/09/21 00:03:27;;;;;;;5.53;3.73;;;16.80;1.00;;;;;;4972705;28;20175;-77
2023/09/21 00:05:54;;;;;;;6.37;3.70;;;16.70;1.00;;;;;;4990104;28;20852;-73
2023/09/21 00:08:22;;;;;;;6.70;3.60;;;;;;;;;;4983078;28;20551;-74
2023/09/21 00:10:48;;;;;;;7.47;3.63;;;16.70;1.00;;;;;;4991277;28;20410;-75
2023/09/21 00:13:14;;;;;;;5.40;3.43;;;16.60;1.00;;;;;;4990198;28;20422;-75
2023/09/21 00:15:42;;;;;;;8.33;3.80;;;16.70;1.00;;;;;;4990175;28;20821;-74
2023/09/21 00:18:08;;;;;;;5.70;3.40;;;16.70;1.00;;;;;;4989740;28;20650;-74
2023/09/21 00:20:42;;;;;;;5.33;3.43;;;16.60;1.00;;;;;;4987636;28;20439;-74
2023/09/21 00:23:08;;;;;;;4.40;3.07;;;16.70;1.00;;;;;;4986115;28;20704;-74
2023/09/21 00:25:34;;;;;;;5.77;3.60;;;16.70;1.00;;;;;;4988673;28;20709;-74
2023/09/21 00:28:07;;;;;;;5.70;3.77;;;16.80;1.00;;;;;;4987167;28;20572;-74
2023/09/21 00:30:36;;;;;;;4.37;3.43;;;;;;;;;;4988833;28;20465;-75
2023/09/21 00:33:02;;;;;;;4.67;3.20;;;;;;;;;;4988638;28;20469;-74
2023/09/21 00:35:28;;;;;;;6.33;3.33;;;16.90;1.00;;;;;;4972510;28;20493;-74
2023/09/21 00:37:56;;;;;;;6.83;3.40;;;17.00;1.00;;;;;;4990433;28;20426;-74
2023/09/21 00:40:22;;;;;;;6.33;3.90;;;;;;;;;;4994724;28;20572;-71
2023/09/21 00:42:49;;;;;;;6.97;3.67;;;17.00;1.00;;;;;;4990301;28;20433;-74
2023/09/21 00:45:14;;;;;;;6.30;3.97;;;17.00;1.00;;;;;;4972381;28;20475;-74
2023/09/21 00:47:49;;;;;;;5.37;3.20;;;17.00;1.00;;;;;;4990687;28;20422;-74
2023/09/21 00:50:21;;;;;;;5.00;3.67;;;17.00;1.00;;;;;;5014048;23;20226;-72
2023/09/21 00:52:51;;;;;;;4.30;2.93;;;17.00;1.00;;;;;;5004386;28;20735;-72
2023/09/21 00:55:23;;;;;;;5.17;3.60;;;17.00;1.00;;;;;;4995869;28;20425;-72
2023/09/21 00:57:55;;;;;;;5.23;3.60;;;17.00;1.00;;;;;;4994791;28;20975;-72
2023/09/21 01:00:26;;;;;;;6.63;3.67;;;17.00;1.00;;;;;;4996449;28;20445;-71
2023/09/21 01:02:54;;;;;;;7.53;3.40;;;17.30;1.00;;;;;;5001193;28;20504;-72
2023/09/21 01:05:21;;;;;;;5.50;3.70;;;17.30;1.00;;;;;;5001881;28;20473;-72
2023/09/21 01:07:50;;;;;;;5.63;3.13;;;19.50;1.00;;;;;;5012118;28;20440;-72
2023/09/21 01:10:21;;;;;;;6.27;3.90;;;17.60;1.00;;;;;;5015432;28;20463;-72
2023/09/21 01:12:49;;;;;;;7.13;4.37;;;17.60;1.00;;;;;;5008636;28;20938;-72
2023/09/21 01:15:16;;;;;;;4.67;3.70;;;17.50;1.00;;;;;;5030330;28;20503;-72
2023/09/21 01:17:42;;;;;;;7.30;4.13;;;17.40;1.00;;;;;;5005846;28;20435;-72
2023/09/21 01:20:22;;;;;;;6.00;3.53;;;17.30;1.00;;;;;;5003591;28;20488;-72
2023/09/21 01:23:01;;;;;;;5.93;3.37;;;17.30;1.00;;;;;;5002136;28;20521;-72
2023/09/21 01:25:27;;;;;;;6.90;4.40;;;17.20;1.00;;;;;;5014480;28;20465;-72
2023/09/21 01:27:53;;;;;;;4.60;3.50;;;17.20;1.00;;;;;;5027383;28;20450;-72
2023/09/21 01:30:18;;;;;;;6.63;3.93;;;17.10;1.00;;;;;;5009809;28;20452;-72
2023/09/21 01:32:45;;;;;;;5.33;3.60;;;17.10;1.00;;;;;;4999707;28;20248;-72
2023/09/21 01:35:14;;;;;;;6.90;3.70;;;17.20;1.00;;;;;;5017405;28;20276;-72
2023/09/21 01:37:40;;;;;;;4.13;3.47;;;17.30;1.00;;;;;;5019417;28;20439;-72
2023/09/21 01:40:15;;;;;;;5.77;3.40;;;17.40;1.00;;;;;;5019625;28;20464;-71
2023/09/21 01:42:40;;;;;;;7.07;3.67;;;17.50;1.00;;;;;;5012780;28;20189;-72
2023/09/21 01:45:13;;;;;;;5.10;3.57;;;17.70;1.00;;;;;;5006120;28;20458;-72
2023/09/21 01:47:39;;;;;;;6.30;3.37;;;17.80;1.00;;;;;;5016948;28;20702;-72
2023/09/21 01:50:10;;;;;;;6.30;3.27;;;17.90;1.00;;;;;;5008155;28;20459;-71
2023/09/21 01:52:36;;;;;;;4.80;3.47;;;18.00;1.00;;;;;;5015740;28;20662;-72
2023/09/21 01:55:05;;;;;;;4.83;3.90;;;18.00;1.00;;;;;;5025972;28;20461;-72
2023/09/21 01:57:31;;;;;;;7.50;4.00;;;18.10;1.00;;;;;;5020996;28;20425;-72
2023/09/21 01:59:56;;;;;;;5.23;3.50;;;18.20;1.00;;;;;;5024616;28;20444;-72
2023/09/21 02:02:23;;;;;;;6.23;4.00;;;18.20;1.00;;;;;;5026434;28;20194;-72
2023/09/21 02:04:48;;;;;;;8.13;3.90;;;18.20;1.00;;;;;;5021919;28;20251;-72
2023/09/21 02:07:14;;;;;;;4.90;3.70;;;18.20;1.00;;;;;;4996184;28;20469;-72
2023/09/21 02:09:40;;;;;;;15.13;4.00;;;18.20;1.00;;;;;;5025536;28;20665;-72
2023/09/21 02:12:06;;;;;;;5.60;3.60;;;18.20;1.00;;;;;;5009731;28;20452;-71
2023/09/21 02:14:32;;;;;;;7.67;4.03;;;18.20;1.00;;;;;;5014271;28;20212;-72
2023/09/21 02:16:58;;;;;;;5.40;3.90;;;18.10;1.00;;;;;;5012413;28;20194;-72
2023/09/21 02:19:23;;;;;;;6.50;3.50;;;18.00;1.00;;;;;;5019326;28;20455;-72
2023/09/21 02:21:50;;;;;;;7.20;3.80;;;18.20;1.00;;;;;;4998816;28;20660;-72
2023/09/21 02:24:15;;;;;;;4.90;3.73;;;18.00;1.00;;;;;;5021100;28;20256;-72
2023/09/21 02:26:42;;;;;;;4.47;3.43;;;18.00;1.00;;;;;;5025455;28;20954;-72
2023/09/21 02:29:11;;;;;;;5.33;3.90;;;17.90;1.00;;;;;;5000076;28;20607;-69
2023/09/21 02:31:37;;;;;;;5.63;4.17;;;17.90;1.00;;;;;;5018406;28;20456;-72
2023/09/21 02:34:04;;;;;;;9.50;4.30;;;20.20;1.00;;;;;;5019837;28;20420;-72
2023/09/21 02:36:31;;;;;;;8.57;4.03;;;18.00;1.00;;;;;;5010813;28;20460;-72
2023/09/21 02:38:56;;;;;;;5.37;3.77;;;18.00;1.00;;;;;;5009779;28;20473;-72
2023/09/21 02:41:23;;;;;;;4.67;3.53;;;18.00;1.00;;;;;;5026157;28;20455;-72
2023/09/21 02:43:48;;;;;;;5.73;3.80;;;18.10;1.00;;;;;;4999360;28;20187;-72
2023/09/21 02:46:15;;;;;;;5.57;4.17;;;18.10;1.00;;;;;;4993390;28;20445;-72
2023/09/21 02:48:40;;;;;;;8.13;4.33;;;18.10;1.00;;;;;;5019419;28;20202;-72
2023/09/21 02:51:06;;;;;;;9.30;3.50;;;18.10;1.00;;;;;;5016202;28;20433;-72
2023/09/21 02:53:32;;;;;;;5.17;3.50;;;18.10;1.00;;;;;;4992895;28;20182;-72
2023/09/21 02:55:59;;;;;;;8.43;4.00;;;18.10;1.00;;;;;;5012609;28;20198;-72
2023/09/21 02:58:26;;;;;;;7.00;3.70;;;18.00;1.00;;;;;;5025448;28;20858;-72
2023/09/21 03:00:51;;;;;;;10.57;3.73;;;18.00;1.00;;;;;;5032713;28;20425;-72
2023/09/21 03:03:20;;;;;;;6.37;3.77;;;18.00;1.00;;;;;;5020537;28;20432;-72
2023/09/21 03:05:47;;;;;;;8.07;3.83;;;18.10;1.00;;;;;;5015784;28;20603;-72
2023/09/21 03:08:14;;;;;;;7.00;3.67;;;18.20;1.00;;;;;;5023028;28;20459;-71
2023/09/21 03:10:45;;;;;;;8.30;3.90;;;18.20;1.00;;;;;;5005433;28;20436;-72
2023/09/21 03:13:18;;;;;;;5.67;3.80;;;18.20;1.00;;;;;;5017643;28;20547;-72
2023/09/21 03:15:58;;;;;;;13.13;3.80;;;18.50;1.00;;;;;;4995929;28;20428;-72
2023/09/21 03:18:24;;;;;;;6.17;3.80;;;18.30;1.00;;;;;;5024825;28;20783;-72
2023/09/21 03:20:52;;;;;;;7.43;3.80;;;18.30;1.00;;;;;;4991522;28;20718;-72
2023/09/21 03:23:17;;;;;;;6.90;4.00;;;18.20;1.00;;;;;;5017047;28;20444;-71
2023/09/21 03:25:45;;;;;;;5.00;4.03;;;18.20;1.00;;;;;;5026241;28;20919;-72
2023/09/21 03:28:13;;;;;;;7.63;4.10;;;18.20;1.00;;;;;;5009314;28;20522;-72
2023/09/21 03:30:46;;;;;;;8.30;4.10;;;18.20;1.00;;;;;;4991579;28;20447;-72
2023/09/21 03:33:14;;;;;;;5.67;3.60;;;18.30;1.00;;;;;;5017575;28;20503;-72
2023/09/21 03:35:40;;;;;;;8.97;4.03;;;18.40;1.00;;;;;;5016816;28;20433;-72
2023/09/21 03:38:06;;;;;;;6.90;4.00;;;18.30;1.00;;;;;;5024125;28;20432;-72
2023/09/21 03:40:33;;;;;;;6.10;3.93;;;18.30;1.00;;;;;;5024001;28;20194;-72
2023/09/21 03:42:59;;;;;;;6.53;3.93;;;18.40;1.00;;;;;;5015638;28;20190;-72
2023/09/21 03:45:25;;;;;;;6.83;3.63;;;18.20;1.00;;;;;;5006397;28;20859;-72
2023/09/21 03:47:52;;;;;;;10.77;4.30;;;18.20;1.00;;;;;;5018665;28;20419;-72
2023/09/21 03:50:18;;;;;;;6.40;4.50;;;18.10;1.00;;;;;;5004560;28;20456;-72
2023/09/21 03:52:43;;;;;;;5.30;3.97;;;18.10;1.00;;;;;;5002695;28;20436;-72
2023/09/21 03:55:10;;;;;;;7.13;4.10;;;18.20;1.00;;;;;;5027454;28;20185;-71
2023/09/21 03:57:37;;;;;;;8.30;4.73;;;18.20;1.00;;;;;;5019990;28;20188;-72
2023/09/21 04:00:13;;;;;;;12.53;4.60;;;18.20;1.00;;;;;;5021700;28;20468;-72
2023/09/21 04:02:42;;;;;;;8.47;4.23;;;18.20;1.00;;;;;;5012998;28;20743;-72
2023/09/21 04:05:08;;;;;;;5.70;4.03;;;18.20;1.00;;;;;;4990517;28;20543;-72
2023/09/21 04:07:34;;;;;;;6.40;4.30;;;18.20;1.00;;;;;;5018591;28;20443;-72
2023/09/21 04:09:59;;;;;;;6.03;4.50;;;18.10;1.00;;;;;;5015429;28;20831;-72
2023/09/21 04:12:25;;;;;;;6.53;4.00;;;18.00;1.00;;;;;;5020653;28;20209;-72
2023/09/21 04:14:51;;;;;;;6.83;4.00;;;18.00;1.00;;;;;;5019859;28;20185;-72
2023/09/21 04:17:17;;;;;;;9.90;4.10;;;18.00;1.00;;;;;;4993906;28;20194;-72
2023/09/21 04:19:44;;;;;;;7.37;4.43;;;18.30;1.00;;;;;;5022261;28;20460;-72
2023/09/21 04:22:09;;;;;;;5.70;4.50;;;20.70;1.00;;;;;;5014619;28;20548;-72
2023/09/21 04:24:35;;;;;;;6.03;4.63;;;17.80;1.00;;;;;;5018848;28;20461;-72
2023/09/21 04:27:00;;;;;;;6.93;4.13;;;17.80;1.00;;;;;;5028186;28;20530;-72
2023/09/21 04:29:26;;;;;;;6.03;4.50;;;18.20;1.00;;;;;;5016970;28;20252;-73
2023/09/21 04:31:52;;;;;;;5.40;4.27;;;17.80;1.00;;;;;;4997829;28;20184;-74
2023/09/21 04:34:17;;;;;;;10.20;4.70;;;17.80;1.00;;;;;;5009430;28;20187;-74
2023/09/21 04:36:43;;;;;;;6.00;4.17;;;17.90;1.00;;;;;;5032161;28;20192;-74
2023/09/21 04:39:13;;;;;;;5.33;4.00;;;17.90;1.00;;;;;;5021633;28;20206;-74
2023/09/21 04:41:39;;;;;;;6.30;4.03;;;18.00;1.00;;;;;;5018330;28;20281;-74
2023/09/21 04:44:05;;;;;;;5.97;4.47;;;18.00;1.00;;;;;;5014107;28;21066;-74
2023/09/21 04:46:31;;;;;;;5.57;4.10;;;18.10;1.00;;;;;;5004737;28;20430;-73
2023/09/21 04:48:57;;;;;;;6.80;4.63;;;18.20;1.00;;;;;;5017125;28;20206;-73
2023/09/21 04:51:22;;;;;;;7.43;4.23;;;18.20;1.00;;;;;;5000119;28;20951;-72
2023/09/21 04:53:48;;;;;;;8.43;4.50;;;18.20;1.00;;;;;;5031522;28;20178;-73
2023/09/21 04:56:14;;;;;;;6.23;4.50;;;18.20;1.00;;;;;;5023364;28;20216;-72
2023/09/21 04:58:40;;;;;;;5.80;4.33;;;18.30;1.00;;;;;;5028521;28;20447;-73
2023/09/21 05:01:10;;;;;;;4.90;4.20;;;18.40;1.00;;;;;;5018160;28;20174;-73
2023/09/21 05:03:36;;;;;;;6.17;4.13;;;18.20;1.00;;;;;;5024209;28;20664;-73
2023/09/21 05:06:06;;;;;;;6.53;3.87;;;18.10;1.00;;;;;;5019662;28;20455;-73
2023/09/21 05:08:36;;;;;;;7.30;3.50;;;18.10;1.00;;;;;;5002371;28;20478;-73
2023/09/21 05:11:03;;;;;;;4.70;4.00;;;18.20;1.00;;;;;;5024125;28;20433;-73
2023/09/21 05:13:29;;;;;;;4.93;3.93;;;18.20;1.00;;;;;;5005355;28;20451;-73
2023/09/21 05:15:54;;;;;;;4.20;3.50;;;18.30;1.00;;;;;;5015583;28;20425;-73
2023/09/21 05:18:20;;;;;;;5.77;4.10;;;18.30;1.00;;;;;;5001156;28;20533;-73
2023/09/21 05:20:45;;;;;;;4.47;3.77;;;18.40;1.00;;;;;;5021925;28;20174;-73
2023/09/21 05:23:11;;;;;;;5.80;4.00;;;18.50;1.00;;;;;;5023331;28;20221;-73
2023/09/21 05:25:37;;;;;;;6.57;4.00;;;18.50;1.00;;;;;;4994958;28;20651;-73
2023/09/21 05:28:02;;;;;;;4.30;3.33;;;16.40;1.00;;;;;;5019625;28;20183;-73
2023/09/21 05:30:29;;;;;;;4.73;3.53;;;18.50;1.00;;;;;;5019431;28;20182;-72
2023/09/21 05:33:00;;;;;;;10.20;3.40;;;18.50;1.00;;;;;;5026256;28;20314;-72
2023/09/21 05:35:27;;;;;;;6.17;3.70;;;18.40;1.00;;;;;;5010364;28;20432;-71
2023/09/21 05:37:53;;;;;;;4.47;3.80;;;18.40;1.00;;;;;;5005544;28;20480;-73
2023/09/21 05:40:19;;;;;;;6.80;3.80;;;18.40;1.00;;;;;;5023096;28;20619;-71
2023/09/21 05:42:45;;;;;;;6.90;3.80;;;18.50;1.00;;;;;;5024196;28;20852;-72
2023/09/21 05:45:11;;;;;;;8.43;4.40;;;18.50;1.00;;;;;;5018957;28;20275;-72
2023/09/21 05:47:37;;;;;;;5.47;4.10;;;18.50;1.00;;;;;;5023698;28;20178;-72
2023/09/21 05:50:05;;;;;;;6.10;3.43;;;18.50;1.00;;;;;;5016553;28;20475;-72
2023/09/21 05:52:33;;;;;;;5.10;3.67;;;18.60;1.00;;;;;;5019204;28;20849;-72
2023/09/21 05:54:59;;;;;;;4.93;3.10;;;18.60;1.00;;;;;;5003171;28;21057;-71
2023/09/21 05:57:25;;;;;;;5.30;3.60;;;18.70;1.00;;;;;;5011848;28;20445;-72
2023/09/21 05:59:51;;;;;;;6.30;3.70;;;18.70;1.00;;;;;;5018038;28;20461;-71
2023/09/21 06:02:16;;;;;;;7.27;3.83;;;18.80;1.00;;;;;;5010176;28;20218;-72
2023/09/21 06:04:42;;;;;;;5.50;3.70;;;18.90;1.00;;;;;;5022770;28;20488;-72
2023/09/21 06:07:08;;;;;;;5.90;3.80;;;19.00;1.00;;;;;;5002604;28;20186;-72
2023/09/21 06:09:33;;;;;;;5.07;3.50;;;19.10;1.00;;;;;;5017456;28;20205;-72
2023/09/21 06:12:00;;;;;;;7.20;3.70;;;19.10;1.00;;;;;;4998370;28;20614;-72
2023/09/21 06:14:25;;;;;;;6.77;3.87;;;19.20;1.00;;;;;;5014437;28;20277;-72
2023/09/21 06:16:51;;;;;;;8.80;4.27;;;19.20;1.00;;;;;;5015653;28;20524;-72
2023/09/21 06:19:18;;;;;;;5.77;3.63;;;19.30;1.00;;;;;;5014875;28;20739;-72
2023/09/21 06:21:47;;;;;;;5.03;3.63;;;19.20;1.00;;;;;;5021047;28;20471;-72
2023/09/21 06:24:14;;;;;;;5.40;3.57;;;19.20;1.00;;;;;;5012104;28;20464;-72
2023/09/21 06:26:39;;;;;;;6.03;3.73;;;19.20;1.00;;;;;;4997309;28;20469;-72
2023/09/21 06:29:05;;;;;;;5.60;3.80;;;19.40;1.00;;;;;;4999313;28;20458;-71
2023/09/21 06:31:31;;;;;;;5.30;3.50;;;19.20;1.00;;;;;;5016443;28;20186;-71
2023/09/21 06:33:59;;;;;;;6.30;3.50;;;19.20;1.00;;;;;;5018040;28;21391;-71
2023/09/21 06:36:28;;;;;;;6.10;3.60;;;19.30;1.00;;;;;;5015539;28;20182;-70
2023/09/21 06:38:55;;;;;;;4.73;3.47;;;19.40;1.00;;;;;;5026629;28;20475;-71
2023/09/21 06:41:21;;;;;;;5.50;3.50;;;19.50;1.00;;;;;;5018060;28;20959;-71
2023/09/21 06:43:47;;;;;;;6.47;3.43;;;19.50;1.00;;;;;;5013887;28;20551;-71
2023/09/21 06:46:13;;;;;;;5.73;3.43;;;19.50;1.00;;;;;;5011299;28;20524;-72
2023/09/21 06:48:42;;;;;;;4.90;3.47;;;21.70;1.00;;;;;;5013709;28;20311;-71
2023/09/21 06:51:08;;;;;;;5.63;3.40;;;19.50;1.00;;;;;;4999222;28;20185;-72
2023/09/21 06:53:36;;;;;;;6.53;3.60;;;19.50;1.00;;;;;;5016545;28;20444;-71
2023/09/21 06:56:03;;;;;;;6.23;4.00;;;19.50;1.00;;;;;;5020751;28;20229;-71
2023/09/21 06:58:30;;;;;;;6.30;3.93;;;19.70;1.00;;;;;;5014900;28;20531;-71
2023/09/21 07:00:59;;;;;;;8.13;4.80;;;19.90;1.00;;;;;;4995046;28;20445;-71
2023/09/21 07:03:25;;;;;;;6.13;3.80;;;19.90;1.00;;;;;;5017918;28;20990;-71
2023/09/21 07:05:51;;;;;;;6.17;4.10;;;20.00;1.00;;;;;;5015151;28;20463;-72
2023/09/21 07:08:18;;;;;;;6.70;3.60;;;20.10;1.00;;;;;;5014812;28;20548;-71
2023/09/21 07:10:44;;;;;;;6.40;4.23;;;20.10;1.00;;;;;;5016184;28;20512;-71
2023/09/21 07:13:10;;;;;;;7.23;3.80;;;20.20;1.00;;;;;;5017674;28;20465;-72
2023/09/21 07:15:37;;;;;;;9.67;3.80;;;20.30;1.00;;;;;;4993573;28;20190;-71
2023/09/21 07:18:05;;;;;;;6.90;4.13;;;20.60;1.00;;;;;;4995895;28;20583;-72
2023/09/21 07:20:31;;;;;;;6.00;4.10;;;20.60;1.00;;;;;;5011642;28;20441;-71
2023/09/21 07:22:57;;;;;;;8.97;3.77;;;20.80;1.00;;;;;;4996653;28;21362;-71
2023/09/21 07:25:23;;;;;;;8.20;3.90;;;20.70;1.00;;;;;;4998986;28;20197;-71
2023/09/21 07:27:51;;;;;;;5.40;3.80;;;20.50;1.00;;;;;;5022507;28;20177;-71
2023/09/21 07:30:17;;;;;;;10.83;4.33;;;20.50;1.00;;;;;;4996629;28;20456;-72
2023/09/21 07:32:42;;;;;;;6.33;4.03;;;20.50;1.00;;;;;;5019325;28;20474;-71
2023/09/21 07:35:09;;;;;;;5.60;3.90;;;20.80;1.00;;;;;;4998917;28;20178;-72
2023/09/21 07:37:35;;;;;;;8.07;4.60;;;20.70;1.00;;;;;;5023371;28;20190;-71
2023/09/21 07:40:06;;;;;;;5.93;4.00;;;20.90;1.00;;;;;;5010650;28;20613;-72
2023/09/21 07:42:34;;;;;;;6.40;4.70;;;20.90;1.00;;;;;;4992197;28;20443;-72
2023/09/21 07:44:59;;;;;;;9.00;5.40;;;20.90;1.00;;;;;;4997294;28;20874;-71
2023/09/21 07:47:25;;;;;;;6.90;5.13;;;20.80;1.00;;;;;;5010627;28;20432;-71
2023/09/21 07:49:54;;;;;;;8.30;5.70;;;20.80;1.00;;;;;;5012179;28;20202;-69
2023/09/21 07:52:23;;;;;;;7.20;5.43;;;20.90;1.00;;;;;;4998157;28;20177;-72
2023/09/21 07:54:49;;;;;;;8.07;5.37;;;20.80;1.00;;;;;;5014191;28;20446;-71
2023/09/21 07:57:16;;;;;;;9.93;5.60;;;20.80;1.00;;;;;;4992127;28;20459;-72
2023/09/21 07:59:42;;;;;;;12.30;5.50;;;21.00;1.00;;;;;;4995778;28;20541;-71
2023/09/21 08:02:09;;;;;;;8.40;5.23;;;21.10;1.00;;;;;;5009590;28;20450;-71
2023/09/21 08:04:38;;;;;;;7.47;4.67;;;21.00;1.00;;;;;;4995931;28;20467;-71
2023/09/21 08:07:05;;;;;;;8.50;4.10;;;21.10;1.00;;;;;;5023950;28;20427;-72
2023/09/21 08:09:31;;;;;;;6.50;4.30;;;21.10;1.00;;;;;;5017051;28;20455;-71
2023/09/21 08:11:57;;;;;;;6.20;4.13;;;21.10;1.00;;;;;;4999380;28;20440;-71
2023/09/21 08:14:25;;;;;;;5.33;4.03;;;21.20;1.00;;;;;;5017612;28;20439;-71
2023/09/21 08:16:53;;;;;;;5.90;4.40;;;21.30;1.00;;;;;;5016656;28;20186;-71
2023/09/21 08:19:19;;;;;;;12.23;4.63;;;21.50;1.00;;;;;;5020892;28;20529;-72
2023/09/21 08:21:44;;;;;;;6.83;5.43;;;21.60;1.00;;;;;;5014988;28;20825;-71
2023/09/21 08:24:10;;;;;;;6.40;4.00;;;21.60;1.00;;;;;;5018606;28;20205;-72
2023/09/21 08:26:37;;;;;;;7.47;4.40;;;21.50;1.00;;;;;;5013729;28;20209;-71
2023/09/21 08:29:04;;;;;;;7.30;3.77;;;21.50;1.00;;;;;;5019417;28;20201;-71
2023/09/21 08:31:30;;;;;;;5.60;3.67;;;21.50;1.00;;;;;;5004805;28;20513;-72
2023/09/21 08:33:56;;;;;;;7.33;3.20;;;21.50;1.00;;;;;;5009359;28;20792;-71
2023/09/21 08:36:21;;;;;;;6.93;4.20;;;21.70;1.00;;;;;;5016263;28;20232;-71
2023/09/21 08:38:47;;;;;;;5.23;3.17;;;21.80;1.00;;;;;;5001529;28;21024;-71
2023/09/21 08:41:13;;;;;;;6.67;3.47;;;22.00;1.00;;;;;;5016679;28;20189;-73
2023/09/21 08:43:40;;;;;;;4.37;3.27;;;22.20;1.00;;;;;;5003006;28;20554;-72
2023/09/21 08:46:06;;;;;;;6.93;3.90;;;22.70;1.00;;;;;;4999611;28;20198;-72
2023/09/21 08:48:33;;;;;;;5.70;3.60;;;24.10;1.00;;;;;;5008044;28;20547;-71
2023/09/21 08:51:01;;;;;;;10.77;3.10;;;22.40;1.00;;;;;;5009855;28;20432;-72
2023/09/21 08:53:27;;;;;;;5.00;2.77;;;22.40;1.00;;;;;;4997042;28;20452;-71
2023/09/21 08:55:56;;;;;;;5.20;2.93;;;22.40;1.00;;;;;;5015158;28;20505;-71
2023/09/21 08:58:24;;;;;;;4.80;3.00;;;22.50;1.00;;;;;;4999237;28;20494;-71
2023/09/21 09:00:54;;;;;;;7.23;3.63;;;22.50;1.00;;;;;;5012882;28;20440;-71
2023/09/21 09:03:25;;;;;;;5.97;3.30;;;22.80;1.00;;;;;;4998068;28;20651;-71
2023/09/21 09:05:52;;;;;;;5.00;2.70;;;23.10;1.00;;;;;;4994715;28;20990;-71
2023/09/21 09:08:18;;;;;;;5.70;3.13;;;23.90;1.00;;;;;;5022900;28;20435;-72
2023/09/21 09:10:43;;;;;;;5.47;2.77;;;23.90;1.00;;;;;;5014035;28;20812;-72
2023/09/21 09:13:09;;;;;;;4.37;2.80;;;24.40;1.00;;;;;;5020652;28;20185;-72
2023/09/21 09:15:37;;;;;;;5.60;3.33;;;25.10;1.00;;;;;;5002443;28;20192;-73
2023/09/21 09:18:03;;;;;;;4.33;2.97;;;28.20;1.00;;;;;;5011101;28;20225;-72
2023/09/21 09:20:30;;;;;;;4.80;2.83;;;28.10;1.00;;;;;;5018636;28;20850;-73
2023/09/21 09:22:56;;;;;;;6.20;2.93;;;28.80;1.00;;;;;;5000628;28;20515;-73
2023/09/21 09:25:22;;;;;;;4.80;3.30;;;28.40;1.00;;;;;;5016566;28;20208;-72
2023/09/21 09:27:47;;;;;;;4.50;2.73;;;28.00;1.00;;;;;;5012453;28;20182;-72
2023/09/21 09:30:13;;;;;;;10.00;3.30;;;27.80;1.00;;;;;;5012666;28;20217;-72
2023/09/21 09:32:42;;;;;;;4.87;3.03;;;27.60;1.00;;;;;;5022187;28;20602;-73
2023/09/21 09:35:14;;;;;;;4.47;2.83;;;27.50;1.00;;;;;;4997822;28;20178;-72
2023/09/21 09:37:44;;;;;;;4.00;2.80;;;27.70;1.00;;;;;;5006592;28;20196;-72
2023/09/21 09:40:18;;;;;;;5.20;3.13;;;27.90;1.00;;;;;;5002501;28;20214;-72
2023/09/21 09:42:45;;;;;;;3.90;2.70;;;28.40;1.00;;;;;;5019074;28;20540;-73
2023/09/21 09:45:28;;;;;;;5.33;3.00;;;28.60;1.00;;;;;;5018396;28;20197;-72
2023/09/21 09:48:01;;;;;;;4.57;2.60;;;28.50;1.00;;;;;;5021103;28;20227;-72
2023/09/21 09:50:33;;;;;;;4.87;2.70;;;28.10;1.00;;;;;;5023371;28;20777;-73
2023/09/21 09:53:06;;;;;;;8.80;2.67;;;27.90;1.00;;;;;;5015660;28;20679;-73
2023/09/21 09:55:35;;;;;;;5.00;2.80;;;28.30;1.00;;;;;;5018220;28;20185;-73
2023/09/21 09:58:05;;;;;;;4.87;3.10;;;29.20;1.00;;;;;;5018978;28;20577;-73
2023/09/21 10:00:33;;;;;;;5.60;2.75;;;30.40;1.00;;;;;;5015457;28;20189;-72
2023/09/21 10:02:58;;;;;;;4.60;2.55;;;31.30;1.00;;;;;;4995387;28;20216;-72
2023/09/21 10:05:26;;;;;;;5.72;2.80;;;32.00;1.00;;;;;;5021238;28;20643;-72
2023/09/21 10:07:55;;;;;;;9.00;3.08;;;32.30;1.00;;;;;;5019865;28;20564;-73
2023/09/21 10:10:27;;;;;;;5.15;2.90;;;32.10;1.00;;;;;;5025831;28;20193;-72
2023/09/21 10:12:53;;;;;;;6.80;2.92;;;31.90;1.00;;;;;;4999991;28;20572;-73
2023/09/21 10:15:22;;;;;;;4.32;2.60;;;31.60;1.00;;;;;;5024609;28;20726;-72
2023/09/21 10:17:50;;;;;;;4.47;2.90;;;30.70;1.00;;;;;;4997081;28;20196;-73
2023/09/21 10:20:24;;;;;;;11.23;2.60;;;30.00;1.00;;;;;;5029526;28;20663;-73
2023/09/21 10:22:52;;;;;;;4.00;2.40;;;29.40;1.00;;;;;;5021121;28;20630;-72
2023/09/21 10:25:44;;;;;;;4.30;2.60;;;28.70;1.00;;;;;;5025363;28;20205;-72
2023/09/21 10:28:28;;;;;;;4.17;2.63;;;28.40;1.00;;;;;;5017402;28;20209;-72
2023/09/21 10:30:54;;;;;;;5.67;2.80;;;28.30;1.00;;;;;;5010900;28;20188;-73
2023/09/21 10:33:20;;;;;;;4.40;2.60;;;28.40;1.00;;;;;;5022767;28;20177;-72
2023/09/21 10:35:45;;;;;;;4.53;2.87;;;28.40;1.00;;;;;;5017759;28;20194;-73
2023/09/21 10:38:12;;;;;;;3.80;2.50;;;28.30;1.00;;;;;;5024199;28;20695;-72
2023/09/21 10:40:37;;;;;;;4.40;2.87;;;28.10;1.00;;;;;;5025008;28;20181;-72
2023/09/21 10:43:38;;;;;;;5.53;3.00;;;28.00;1.00;;;;;;5015182;28;20791;-72
2023/09/21 10:46:16;;;;;;;4.67;2.90;;;27.70;1.00;;;;;;4996251;28;20210;-72
2023/09/21 10:48:45;;;;;;;5.30;2.90;;;27.60;1.00;;;;;;5017891;28;20205;-72
2023/09/21 10:51:10;;;;;;;5.83;2.83;;;27.50;1.00;;;;;;5015924;28;20193;-72
2023/09/21 10:53:37;;;;;;;4.20;2.90;;;27.30;1.00;;;;;;5024405;28;20682;-72
2023/09/21 10:56:02;;;;;;;3.80;2.50;;;27.10;1.00;;;;;;5019065;28;20186;-72
2023/09/21 10:58:32;;;;;;;5.90;2.50;;;26.90;1.00;;;;;;5023397;28;20348;-72
2023/09/21 11:01:00;;;;;;;6.70;3.00;;;26.80;1.00;;;;;;5019596;28;20189;-72
2023/09/21 11:03:26;;;;;;;4.73;2.73;;;26.80;1.00;;;;;;5001920;28;20950;-72
2023/09/21 11:05:54;;;;;;;4.60;2.70;;;27.10;1.00;;;;;;5023959;28;20213;-72
2023/09/21 11:08:24;;;;;;;4.30;2.80;;;27.70;1.00;;;;;;5023162;28;20540;-72
2023/09/21 11:10:50;;;;;;;4.00;2.70;;;27.80;1.00;;;;;;5013539;28;20173;-72
2023/09/21 11:13:17;;;;;;;3.57;2.63;;;27.90;1.00;;;;;;5004920;28;20200;-72
2023/09/21 11:15:46;;;;;;;4.17;2.50;;;28.00;1.00;;;;;;5020792;28;20192;-72
2023/09/21 11:18:12;;;;;;;4.20;2.80;;;28.40;1.00;;;;;;4994046;28;20276;-72
2023/09/21 11:20:39;;;;;;;4.50;2.87;;;28.40;1.00;;;;;;5011756;28;20320;-72
2023/09/21 11:23:07;;;;;;;5.47;2.53;;;28.60;1.00;;;;;;5010621;28;20682;-72
2023/09/21 11:25:33;;;;;;;4.60;2.80;;;29.20;1.00;;;;;;5010069;28;20340;-72
2023/09/21 11:27:59;;;;;;;5.63;2.70;;;29.70;1.00;;;;;;4994108;28;20276;-72
2023/09/21 11:30:25;;;;;;;7.63;2.43;;;29.80;1.00;;;;;;5019199;28;20197;-72
2023/09/21 11:32:53;;;;;;;4.97;2.47;;;29.40;1.00;;;;;;5017173;28;20178;-72
2023/09/21 11:35:20;;;;;;;6.43;2.77;;;29.10;1.00;;;;;;5009351;28;20190;-73
2023/09/21 11:37:47;;;;;;;5.27;2.80;;;28.80;1.00;;;;;;5017982;28;20675;-72
2023/09/21 11:40:14;;;;;;;4.70;2.50;;;29.30;1.00;;;;;;5008936;28;20249;-73
2023/09/21 11:42:43;;;;;;;5.40;3.30;;;30.20;1.00;;;;;;5011518;28;20189;-72
2023/09/21 11:45:19;;;;;;;3.45;2.40;;;31.00;1.00;;;;;;5012339;28;20288;-72
2023/09/21 11:47:55;;;;;;;5.75;2.42;;;30.80;1.00;;;;;;5005184;28;20236;-73
2023/09/21 11:50:22;;;;;;;5.28;2.75;;;30.10;1.00;;;;;;5009017;28;20205;-73
2023/09/21 11:52:54;;;;;;;6.43;2.90;;;29.90;1.00;;;;;;5018734;28;20188;-72
2023/09/21 11:55:24;;;;;;;5.30;2.40;;;29.90;1.00;;;;;;5011303;28;20267;-72
2023/09/21 11:57:51;;;;;;;5.05;2.42;;;30.00;1.00;;;;;;5015327;28;20205;-73
2023/09/21 12:00:43;;;;;;;3.92;2.40;;;30.90;1.00;;;;;;5020726;28;20193;-72
2023/09/21 12:03:13;;;;;;;4.05;2.40;;;31.30;1.00;;;;;;5018286;28;20181;-73
2023/09/21 12:05:48;;;;;;;3.63;2.30;;;31.70;1.00;;;;;;5013226;28;20200;-73
2023/09/21 12:08:16;;;;;;;3.90;2.63;;;33.50;1.00;;;;;;5010937;28;20173;-73
2023/09/21 12:10:45;;;;;;;3.80;2.38;;;33.50;1.00;;;;;;5015404;28;20195;-73
2023/09/21 12:13:11;;;;;;;4.35;2.60;;;33.90;1.00;;;;;;5020960;28;20180;-73
2023/09/21 12:15:38;;;;;;;6.13;2.95;;;34.50;1.00;;;;;;5017821;28;20189;-73
2023/09/21 12:18:05;;;;;;;4.60;2.42;;;34.70;1.00;;;;;;5014591;28;20204;-73
2023/09/21 12:20:31;;;;;;;5.05;2.47;;;33.60;1.00;;;;;;5016021;28;20217;-73
2023/09/21 12:22:57;;;;;;;3.90;2.30;;;33.20;1.00;;;;;;5014321;28;20209;-72
2023/09/21 12:25:24;;;;;;;4.03;2.40;;;32.00;1.00;;;;;;5009668;28;20569;-73
2023/09/21 12:27:50;;;;;;;5.18;2.58;;;31.40;1.00;;;;;;4993863;28;20922;-73
2023/09/21 12:30:17;;;;;;;6.30;2.53;;;31.10;1.00;;;;;;5015434;28;20232;-72
2023/09/21 12:32:43;;;;;;;4.10;2.50;;;30.60;1.00;;;;;;5013444;28;20679;-72
2023/09/21 12:35:10;;;;;;;4.80;2.58;;;30.00;1.00;;;;;;5019388;28;20615;-72
2023/09/21 12:37:39;;;;;;;5.00;2.92;;;29.40;1.00;;;;;;5023729;28;20598;-72
2023/09/21 12:40:12;;;;;;;5.57;2.67;;;28.80;1.00;;;;;;4998371;28;20690;-73
2023/09/21 12:42:42;;;;;;;4.80;2.60;;;28.60;1.00;;;;;;5020443;28;20196;-72
2023/09/21 12:45:11;;;;;;;4.97;2.30;;;28.40;1.00;;;;;;5018352;28;20228;-70
2023/09/21 12:47:41;;;;;;;4.97;2.87;;;28.40;1.00;;;;;;4997086;28;20240;-72
2023/09/21 12:50:08;;;;;;;5.13;2.90;;;28.50;1.00;;;;;;5013090;28;20217;-73
2023/09/21 12:52:34;;;;;;;5.27;2.30;;;28.60;1.00;;;;;;5001886;28;20656;-72
2023/09/21 12:55:00;;;;;;;5.33;2.90;;;28.60;1.00;;;;;;5019646;28;20194;-72
2023/09/21 12:57:27;;;;;;;4.93;3.30;;;28.60;1.00;;;;;;5015286;28;20256;-72
2023/09/21 12:59:54;;;;;;;4.30;2.63;;;28.60;1.00;;;;;;5004001;28;20206;-72